sensor_id;sensor_type;location;lat;lon;timestamp;pressure;altitude;pressure_sealevel;temperature;humidity
71573;BME280;59408;51.032;9.410;2023-04-25T00:00:49;98261.78;;;2.71;100.00
71573;BME280;59408;51.032;9.410;2023-04-25T00:03:15;98263.13;;;2.60;100.00
71573;BME280;59408;51.032;9.410;2023-04-25T00:05:44;98254.19;;;2.51;100.00
71573;BME280;59408;51.032;9.410;2023-04-25T00:08:11;98256.50;;;2.44;100.00
71573;BME280;59408;51.032;9.410;2023-04-25T00:10:37;98256.91;;;2.37;100.00
71573;BME280;59408;51.032;9.410;2023-04-25T00:13:04;98258.13;;;2.31;100.00
71573;BME280;59408;51.032;9.410;2023-04-25T00:15:31;98247.78;;;2.25;100.00
71573;BME280;59408;51.032;9.410;2023-04-25T00:17:57;98251.19;;;2.17;100.00
71573;BME280;59408;51.032;9.410;2023-04-25T00:20:24;98248.09;;;2.10;100.00
71573;BME280;59408;51.032;9.410;2023-04-25T00:22:52;98253.13;;;2.03;100.00
71573;BME280;59408;51.032;9.410;2023-04-25T00:25:19;98253.53;;;1.96;100.00
71573;BME280;59408;51.032;9.410;2023-04-25T00:27:45;98245.59;;;1.91;100.00
71573;BME280;59408;51.032;9.410;2023-04-25T00:30:13;98243.78;;;1.86;100.00
71573;BME280;59408;51.032;9.410;2023-04-25T00:32:40;98247.69;;;1.80;100.00
71573;BME280;59408;51.032;9.410;2023-04-25T00:35:07;98250.47;;;1.75;100.00
71573;BME280;59408;51.032;9.410;2023-04-25T00:37:33;98254.34;;;1.69;100.00
71573;BME280;59408;51.032;9.410;2023-04-25T00:40:03;98246.72;;;1.62;100.00
71573;BME280;59408;51.032;9.410;2023-04-25T00:42:31;98251.56;;;1.60;100.00
71573;BME280;59408;51.032;9.410;2023-04-25T00:44:58;98250.78;;;1.60;100.00
71573;BME280;59408;51.032;9.410;2023-04-25T00:47:25;98251.56;;;1.60;100.00
71573;BME280;59408;51.032;9.410;2023-04-25T00:49:52;98251.38;;;1.57;100.00
71573;BME280;59408;51.032;9.410;2023-04-25T00:52:18;98262.81;;;1.49;100.00
71573;BME280;59408;51.032;9.410;2023-04-25T00:54:45;98256.34;;;1.50;100.00
71573;BME280;59408;51.032;9.410;2023-04-25T00:57:13;98247.97;;;1.65;100.00
71573;BME280;59408;51.032;9.410;2023-04-25T00:59:44;98253.16;;;1.75;100.00
71573;BME280;59408;51.032;9.410;2023-04-25T01:02:11;98246.88;;;1.80;100.00
71573;BME280;59408;51.032;9.410;2023-04-25T01:04:38;98238.13;;;1.74;100.00
71573;BME280;59408;51.032;9.410;2023-04-25T01:07:05;98244.69;;;1.68;100.00
71573;BME280;59408;51.032;9.410;2023-04-25T01:09:32;98249.69;;;1.61;100.00
71573;BME280;59408;51.032;9.410;2023-04-25T01:11:59;98245.69;;;1.58;100.00
71573;BME280;59408;51.032;9.410;2023-04-25T01:14:27;98255.47;;;1.82;100.00
71573;BME280;59408;51.032;9.410;2023-04-25T01:16:54;98255.47;;;1.82;100.00
71573;BME280;59408;51.032;9.410;2023-04-25T01:19:21;98254.44;;;1.78;100.00
71573;BME280;59408;51.032;9.410;2023-04-25T01:21:49;98266.09;;;1.73;100.00
71573;BME280;59408;51.032;9.410;2023-04-25T01:24:16;98263.31;;;1.64;100.00
71573;BME280;59408;51.032;9.410;2023-04-25T01:26:43;98266.00;;;1.64;100.00
71573;BME280;59408;51.032;9.410;2023-04-25T01:29:10;98263.13;;;1.61;100.00
71573;BME280;59408;51.032;9.410;2023-04-25T01:31:37;98262.13;;;1.57;100.00
71573;BME280;59408;51.032;9.410;2023-04-25T01:34:04;98261.72;;;1.50;100.00
71573;BME280;59408;51.032;9.410;2023-04-25T01:36:31;98258.75;;;1.51;100.00
71573;BME280;59408;51.032;9.410;2023-04-25T01:38:59;98262.53;;;1.50;100.00
71573;BME280;59408;51.032;9.410;2023-04-25T01:41:26;98267.50;;;1.57;100.00
71573;BME280;59408;51.032;9.410;2023-04-25T01:43:53;98255.94;;;1.56;100.00
71573;BME280;59408;51.032;9.410;2023-04-25T01:46:19;98269.56;;;1.74;100.00
71573;BME280;59408;51.032;9.410;2023-04-25T01:48:46;98265.09;;;1.83;100.00
71573;BME280;59408;51.032;9.410;2023-04-25T01:51:13;98266.97;;;1.96;100.00
71573;BME280;59408;51.032;9.410;2023-04-25T01:53:40;98271.56;;;1.95;100.00
71573;BME280;59408;51.032;9.410;2023-04-25T01:56:08;98263.41;;;1.87;100.00
71573;BME280;59408;51.032;9.410;2023-04-25T01:58:35;98264.50;;;1.99;100.00
71573;BME280;59408;51.032;9.410;2023-04-25T02:01:02;98265.47;;;2.04;100.00
71573;BME280;59408;51.032;9.410;2023-04-25T02:03:29;98256.31;;;2.05;100.00
71573;BME280;59408;51.032;9.410;2023-04-25T02:05:56;98262.59;;;2.00;100.00
71573;BME280;59408;51.032;9.410;2023-04-25T02:08:22;98255.41;;;1.95;100.00
71573;BME280;59408;51.032;9.410;2023-04-25T02:10:49;98264.97;;;2.01;100.00
71573;BME280;59408;51.032;9.410;2023-04-25T02:13:17;98254.63;;;1.95;100.00
71573;BME280;59408;51.032;9.410;2023-04-25T02:15:44;98257.34;;;1.81;100.00
71573;BME280;59408;51.032;9.410;2023-04-25T02:18:11;98269.41;;;1.70;100.00
71573;BME280;59408;51.032;9.410;2023-04-25T02:20:37;98255.56;;;1.63;100.00
71573;BME280;59408;51.032;9.410;2023-04-25T02:23:04;98260.53;;;1.70;100.00
71573;BME280;59408;51.032;9.410;2023-04-25T02:25:31;98260.72;;;1.73;100.00
71573;BME280;59408;51.032;9.410;2023-04-25T02:27:57;98254.75;;;1.76;100.00
71573;BME280;59408;51.032;9.410;2023-04-25T02:30:25;98263.59;;;1.77;100.00
71573;BME280;59408;51.032;9.410;2023-04-25T02:32:52;98250.75;;;1.74;100.00
71573;BME280;59408;51.032;9.410;2023-04-25T02:35:19;98254.88;;;1.71;100.00
71573;BME280;59408;51.032;9.410;2023-04-25T02:37:45;98253.56;;;1.69;100.00
71573;BME280;59408;51.032;9.410;2023-04-25T02:40:12;98259.63;;;1.74;100.00
71573;BME280;59408;51.032;9.410;2023-04-25T02:42:38;98253.56;;;1.69;100.00
71573;BME280;59408;51.032;9.410;2023-04-25T02:45:06;98258.03;;;1.73;100.00
71573;BME280;59408;51.032;9.410;2023-04-25T02:47:34;98257.72;;;1.75;100.00
71573;BME280;59408;51.032;9.410;2023-04-25T02:50:01;98258.91;;;1.82;100.00
71573;BME280;59408;51.032;9.410;2023-04-25T02:52:28;98255.03;;;1.88;100.00
71573;BME280;59408;51.032;9.410;2023-04-25T02:54:54;98249.16;;;2.00;100.00
71573;BME280;59408;51.032;9.410;2023-04-25T02:57:21;98239.78;;;1.97;100.00
71573;BME280;59408;51.032;9.410;2023-04-25T02:59:47;98243.28;;;1.98;100.00
71573;BME280;59408;51.032;9.410;2023-04-25T03:02:14;98239.59;;;1.94;100.00
71573;BME280;59408;51.032;9.410;2023-04-25T03:04:42;98248.94;;;1.96;100.00
71573;BME280;59408;51.032;9.410;2023-04-25T03:07:09;98250.03;;;1.95;100.00
71573;BME280;59408;51.032;9.410;2023-04-25T03:09:35;98251.34;;;1.98;100.00
71573;BME280;59408;51.032;9.410;2023-04-25T03:12:02;98252.22;;;2.07;100.00
71573;BME280;59408;51.032;9.410;2023-04-25T03:14:29;98262.75;;;2.17;100.00
71573;BME280;59408;51.032;9.410;2023-04-25T03:16:56;98272.53;;;2.13;100.00
71573;BME280;59408;51.032;9.410;2023-04-25T03:19:22;98261.66;;;2.18;100.00
71573;BME280;59408;51.032;9.410;2023-04-25T03:21:50;98258.06;;;2.23;100.00
71573;BME280;59408;51.032;9.410;2023-04-25T03:24:17;98274.19;;;2.23;100.00
71573;BME280;59408;51.032;9.410;2023-04-25T03:26:44;98272.09;;;2.20;100.00
71573;BME280;59408;51.032;9.410;2023-04-25T03:29:10;98267.81;;;2.19;100.00
71573;BME280;59408;51.032;9.410;2023-04-25T03:31:37;98264.94;;;2.15;100.00
71573;BME280;59408;51.032;9.410;2023-04-25T03:34:04;98264.16;;;2.15;100.00
71573;BME280;59408;51.032;9.410;2023-04-25T03:36:30;98262.06;;;2.12;100.00
71573;BME280;59408;51.032;9.410;2023-04-25T03:38:58;98263.47;;;2.09;100.00
71573;BME280;59408;51.032;9.410;2023-04-25T03:41:24;98267.84;;;2.05;100.00
71573;BME280;59408;51.032;9.410;2023-04-25T03:43:51;98262.47;;;2.05;100.00
71573;BME280;59408;51.032;9.410;2023-04-25T03:46:18;98260.88;;;2.04;100.00
71573;BME280;59408;51.032;9.410;2023-04-25T03:48:45;98262.28;;;2.01;100.00
71573;BME280;59408;51.032;9.410;2023-04-25T03:51:11;98262.91;;;1.98;100.00
71573;BME280;59408;51.032;9.410;2023-04-25T03:53:38;98269.88;;;1.99;100.00
71573;BME280;59408;51.032;9.410;2023-04-25T03:56:06;98269.38;;;1.97;100.00
71573;BME280;59408;51.032;9.410;2023-04-25T03:58:33;98269.66;;;1.96;100.00
71573;BME280;59408;51.032;9.410;2023-04-25T04:01:00;98274.25;;;1.95;100.00
71573;BME280;59408;51.032;9.410;2023-04-25T04:03:26;98273.44;;;1.95;100.00
71573;BME280;59408;51.032;9.410;2023-04-25T04:05:54;98276.44;;;1.93;100.00
71573;BME280;59408;51.032;9.410;2023-04-25T04:08:20;98267.88;;;1.91;100.00
71573;BME280;59408;51.032;9.410;2023-04-25T04:10:47;98268.19;;;1.90;100.00
71573;BME280;59408;51.032;9.410;2023-04-25T04:13:15;98269.00;;;1.90;100.00
71573;BME280;59408;51.032;9.410;2023-04-25T04:15:42;98272.34;;;1.96;100.00
71573;BME280;59408;51.032;9.410;2023-04-25T04:18:08;98279.72;;;2.04;100.00
71573;BME280;59408;51.032;9.410;2023-04-25T04:20:35;98285.00;;;2.09;100.00
71573;BME280;59408;51.032;9.410;2023-04-25T04:23:02;98282.47;;;2.13;100.00
71573;BME280;59408;51.032;9.410;2023-04-25T04:25:28;98276.69;;;2.19;100.00
71573;BME280;59408;51.032;9.410;2023-04-25T04:27:55;98281.47;;;2.22;100.00
71573;BME280;59408;51.032;9.410;2023-04-25T04:30:24;98288.66;;;2.27;100.00
71573;BME280;59408;51.032;9.410;2023-04-25T04:32:51;98297.09;;;2.34;100.00
71573;BME280;59408;51.032;9.410;2023-04-25T04:35:18;98291.78;;;2.43;100.00
71573;BME280;59408;51.032;9.410;2023-04-25T04:37:45;98295.34;;;2.52;100.00
71573;BME280;59408;51.032;9.410;2023-04-25T04:40:12;98291.72;;;2.56;100.00
71573;BME280;59408;51.032;9.410;2023-04-25T04:42:39;98302.56;;;2.65;100.00
71573;BME280;59408;51.032;9.410;2023-04-25T04:45:06;98301.06;;;2.72;100.00
71573;BME280;59408;51.032;9.410;2023-04-25T04:47:34;98305.72;;;2.81;100.00
71573;BME280;59408;51.032;9.410;2023-04-25T04:50:01;98318.44;;;2.89;100.00
71573;BME280;59408;51.032;9.410;2023-04-25T04:52:27;98323.69;;;2.94;100.00
71573;BME280;59408;51.032;9.410;2023-04-25T04:54:54;98318.38;;;3.02;100.00
71573;BME280;59408;51.032;9.410;2023-04-25T04:57:21;98319.53;;;3.10;100.00
71573;BME280;59408;51.032;9.410;2023-04-25T04:59:47;98324.31;;;3.13;100.00
71573;BME280;59408;51.032;9.410;2023-04-25T05:02:14;98327.19;;;3.17;100.00
71573;BME280;59408;51.032;9.410;2023-04-25T05:04:42;98320.06;;;3.21;100.00
71573;BME280;59408;51.032;9.410;2023-04-25T05:07:08;98320.88;;;3.21;100.00
71573;BME280;59408;51.032;9.410;2023-04-25T05:09:35;98325.66;;;3.24;100.00
71573;BME280;59408;51.032;9.410;2023-04-25T05:12:02;98328.19;;;3.29;100.00
71573;BME280;59408;51.032;9.410;2023-04-25T05:14:30;98330.00;;;3.34;100.00
71573;BME280;59408;51.032;9.410;2023-04-25T05:16:57;98323.50;;;3.35;100.00
71573;BME280;59408;51.032;9.410;2023-04-25T05:19:24;98325.25;;;3.39;100.00
71573;BME280;59408;51.032;9.410;2023-04-25T05:21:52;98329.03;;;3.38;100.00
71573;BME280;59408;51.032;9.410;2023-04-25T05:24:18;98334.31;;;3.43;100.00
71573;BME280;59408;51.032;9.410;2023-04-25T05:26:45;98333.22;;;3.44;100.00
71573;BME280;59408;51.032;9.410;2023-04-25T05:29:12;98338.78;;;3.48;100.00
71573;BME280;59408;51.032;9.410;2023-04-25T05:31:38;98337.88;;;3.53;100.00
71573;BME280;59408;51.032;9.410;2023-04-25T05:34:05;98341.66;;;3.51;99.96
71573;BME280;59408;51.032;9.410;2023-04-25T05:36:31;98340.06;;;3.50;100.00
71573;BME280;59408;51.032;9.410;2023-04-25T05:38:59;98333.75;;;3.55;100.00
71573;BME280;59408;51.032;9.410;2023-04-25T05:41:26;98343.91;;;3.58;100.00
71573;BME280;59408;51.032;9.410;2023-04-25T05:43:53;98341.09;;;3.63;100.00
71573;BME280;59408;51.032;9.410;2023-04-25T05:46:23;98344.59;;;3.64;100.00
71573;BME280;59408;51.032;9.410;2023-04-25T05:48:49;98353.31;;;3.69;100.00
71573;BME280;59408;51.032;9.410;2023-04-25T05:51:16;98348.91;;;3.73;100.00
71573;BME280;59408;51.032;9.410;2023-04-25T05:53:43;98347.63;;;3.71;100.00
71573;BME280;59408;51.032;9.410;2023-04-25T05:56:11;98357.00;;;3.73;100.00
71573;BME280;59408;51.032;9.410;2023-04-25T05:58:37;98349.22;;;3.72;100.00
71573;BME280;59408;51.032;9.410;2023-04-25T06:01:04;98359.84;;;3.77;99.40
71573;BME280;59408;51.032;9.410;2023-04-25T06:03:30;98356.56;;;3.80;99.18
71573;BME280;59408;51.032;9.410;2023-04-25T06:05:57;98361.50;;;3.86;99.11
71573;BME280;59408;51.032;9.410;2023-04-25T06:08:24;98363.56;;;3.89;99.82
71573;BME280;59408;51.032;9.410;2023-04-25T06:10:50;98364.53;;;3.94;99.83
71573;BME280;59408;51.032;9.410;2023-04-25T06:13:18;98366.31;;;3.98;99.01
71573;BME280;59408;51.032;9.410;2023-04-25T06:15:45;98365.53;;;4.06;98.46
71573;BME280;59408;51.032;9.410;2023-04-25T06:18:12;98364.94;;;4.09;98.14
71573;BME280;59408;51.032;9.410;2023-04-25T06:20:38;98369.84;;;4.07;98.14
71573;BME280;59408;51.032;9.410;2023-04-25T06:23:05;98372.34;;;4.04;97.72
71573;BME280;59408;51.032;9.410;2023-04-25T06:25:31;98374.75;;;4.05;98.84
71573;BME280;59408;51.032;9.410;2023-04-25T06:27:58;98376.19;;;4.11;98.05
71573;BME280;59408;51.032;9.410;2023-04-25T06:30:26;98374.94;;;4.17;98.27
71573;BME280;59408;51.032;9.410;2023-04-25T06:32:53;98386.84;;;4.16;97.32
71573;BME280;59408;51.032;9.410;2023-04-25T06:35:20;98389.69;;;4.20;97.62
71573;BME280;59408;51.032;9.410;2023-04-25T06:37:46;98391.47;;;4.24;99.48
71573;BME280;59408;51.032;9.410;2023-04-25T06:40:13;98387.66;;;4.25;97.78
71573;BME280;59408;51.032;9.410;2023-04-25T06:42:40;98391.00;;;4.31;98.50
71573;BME280;59408;51.032;9.410;2023-04-25T06:45:07;98394.69;;;4.35;98.06
71573;BME280;59408;51.032;9.410;2023-04-25T06:47:35;98391.53;;;4.42;98.75
71573;BME280;59408;51.032;9.410;2023-04-25T06:50:02;98400.72;;;4.41;99.43
71573;BME280;59408;51.032;9.410;2023-04-25T06:52:29;98405.03;;;4.42;99.31
71573;BME280;59408;51.032;9.410;2023-04-25T06:54:56;98406.47;;;4.48;98.88
71573;BME280;59408;51.032;9.410;2023-04-25T06:57:23;98403.47;;;4.58;97.52
71573;BME280;59408;51.032;9.410;2023-04-25T06:59:50;98409.84;;;4.62;95.09
71573;BME280;59408;51.032;9.410;2023-04-25T07:02:16;98410.00;;;4.65;94.81
71573;BME280;59408;51.032;9.410;2023-04-25T07:04:44;98424.16;;;4.80;93.37
71573;BME280;59408;51.032;9.410;2023-04-25T07:07:11;98418.00;;;4.96;95.17
71573;BME280;59408;51.032;9.410;2023-04-25T07:09:38;98423.25;;;5.01;93.71
71573;BME280;59408;51.032;9.410;2023-04-25T07:12:05;98419.00;;;5.09;92.23
71573;BME280;59408;51.032;9.410;2023-04-25T07:14:31;98415.94;;;5.11;91.70
71573;BME280;59408;51.032;9.410;2023-04-25T07:16:58;98424.53;;;5.21;91.93
71573;BME280;59408;51.032;9.410;2023-04-25T07:19:25;98431.72;;;5.17;92.32
71573;BME280;59408;51.032;9.410;2023-04-25T07:21:53;98436.16;;;5.13;92.56
71573;BME280;59408;51.032;9.410;2023-04-25T07:24:19;98429.94;;;5.21;91.63
71573;BME280;59408;51.032;9.410;2023-04-25T07:26:46;98435.84;;;5.23;93.15
71573;BME280;59408;51.032;9.410;2023-04-25T07:29:13;98434.09;;;5.27;90.94
71573;BME280;59408;51.032;9.410;2023-04-25T07:31:40;98434.09;;;5.27;90.88
71573;BME280;59408;51.032;9.410;2023-04-25T07:34:06;98445.38;;;5.38;90.80
71573;BME280;59408;51.032;9.410;2023-04-25T07:36:33;98438.53;;;5.41;90.77
71573;BME280;59408;51.032;9.410;2023-04-25T07:39:01;98447.91;;;5.60;90.26
71573;BME280;59408;51.032;9.410;2023-04-25T07:41:28;98443.41;;;5.82;90.55
71573;BME280;59408;51.032;9.410;2023-04-25T07:43:54;98438.59;;;5.96;87.47
71573;BME280;59408;51.032;9.410;2023-04-25T07:46:21;98444.63;;;6.10;86.87
71573;BME280;59408;51.032;9.410;2023-04-25T07:48:47;98448.94;;;5.94;85.32
71573;BME280;59408;51.032;9.410;2023-04-25T07:51:14;98450.47;;;6.12;85.19
71573;BME280;59408;51.032;9.410;2023-04-25T07:53:41;98444.34;;;6.32;84.56
71573;BME280;59408;51.032;9.410;2023-04-25T07:56:09;98451.00;;;6.43;81.48
71573;BME280;59408;51.032;9.410;2023-04-25T07:58:36;98445.03;;;6.59;81.36
71573;BME280;59408;51.032;9.410;2023-04-25T08:01:02;98455.69;;;6.64;79.37
71573;BME280;59408;51.032;9.410;2023-04-25T08:03:29;98462.22;;;6.92;80.31
71573;BME280;59408;51.032;9.410;2023-04-25T08:05:56;98456.69;;;7.09;78.54
71573;BME280;59408;51.032;9.410;2023-04-25T08:08:23;98458.66;;;7.21;78.09
71573;BME280;59408;51.032;9.410;2023-04-25T08:10:49;98463.16;;;6.96;78.72
71573;BME280;59408;51.032;9.410;2023-04-25T08:13:17;98460.22;;;7.01;81.11
71573;BME280;59408;51.032;9.410;2023-04-25T08:15:44;98461.59;;;7.16;79.04
71573;BME280;59408;51.032;9.410;2023-04-25T08:18:11;98463.88;;;7.35;80.72
71573;BME280;59408;51.032;9.410;2023-04-25T08:20:37;98470.75;;;7.53;80.66
71573;BME280;59408;51.032;9.410;2023-04-25T08:23:04;98481.34;;;7.46;76.75
71573;BME280;59408;51.032;9.410;2023-04-25T08:25:31;98476.28;;;7.56;77.71
71573;BME280;59408;51.032;9.410;2023-04-25T08:27:57;98481.66;;;7.98;76.82
71573;BME280;59408;51.032;9.410;2023-04-25T08:30:25;98478.09;;;7.85;72.96
71573;BME280;59408;51.032;9.410;2023-04-25T08:32:52;98488.69;;;7.99;71.33
71573;BME280;59408;51.032;9.410;2023-04-25T08:35:19;98487.84;;;7.86;71.00
71573;BME280;59408;51.032;9.410;2023-04-25T08:37:46;98487.84;;;7.86;72.29
71573;BME280;59408;51.032;9.410;2023-04-25T08:40:14;98494.72;;;7.84;74.63
71573;BME280;59408;51.032;9.410;2023-04-25T08:42:42;98492.84;;;7.96;75.80
71573;BME280;59408;51.032;9.410;2023-04-25T08:45:09;98495.66;;;7.88;74.40
71573;BME280;59408;51.032;9.410;2023-04-25T08:47:38;98508.84;;;7.77;72.13
71573;BME280;59408;51.032;9.410;2023-04-25T08:50:06;98510.09;;;7.38;70.31
71573;BME280;59408;51.032;9.410;2023-04-25T08:52:36;98500.06;;;7.59;68.80
71573;BME280;59408;51.032;9.410;2023-04-25T08:55:04;98521.63;;;7.56;65.32
71573;BME280;59408;51.032;9.410;2023-04-25T08:57:33;98516.16;;;7.97;67.13
71573;BME280;59408;51.032;9.410;2023-04-25T09:00:01;98528.81;;;8.26;64.73
71573;BME280;59408;51.032;9.410;2023-04-25T09:02:27;98524.91;;;8.60;63.55
71573;BME280;59408;51.032;9.410;2023-04-25T09:04:57;98527.41;;;8.53;61.89
71573;BME280;59408;51.032;9.410;2023-04-25T09:07:23;98528.06;;;8.50;63.87
71573;BME280;59408;51.032;9.410;2023-04-25T09:09:50;98535.47;;;8.62;63.93
71573;BME280;59408;51.032;9.410;2023-04-25T09:12:18;98541.69;;;8.17;59.76
71573;BME280;59408;51.032;9.410;2023-04-25T09:15:01;98537.25;;;7.80;60.75
71573;BME280;59408;51.032;9.410;2023-04-25T09:17:28;98542.66;;;8.00;62.65
71573;BME280;59408;51.032;9.410;2023-04-25T09:20:05;98551.94;;;7.99;58.85
71573;BME280;59408;51.032;9.410;2023-04-25T09:22:31;98555.47;;;8.12;60.56
71573;BME280;59408;51.032;9.410;2023-04-25T09:25:02;98558.72;;;8.26;59.74
71573;BME280;59408;51.032;9.410;2023-04-25T09:27:29;98562.72;;;8.41;61.82
71573;BME280;59408;51.032;9.410;2023-04-25T09:29:57;98556.66;;;8.81;60.09
71573;BME280;59408;51.032;9.410;2023-04-25T09:32:24;98555.19;;;8.71;61.02
71573;BME280;59408;51.032;9.410;2023-04-25T09:34:53;98568.03;;;9.31;60.20
71573;BME280;59408;51.032;9.410;2023-04-25T09:37:21;98566.50;;;9.70;59.62
71573;BME280;59408;51.032;9.410;2023-04-25T09:39:50;98570.50;;;9.12;57.65
71573;BME280;59408;51.032;9.410;2023-04-25T09:42:17;98575.81;;;8.96;57.70
71573;BME280;59408;51.032;9.410;2023-04-25T09:44:45;98568.66;;;8.22;59.66
71573;BME280;59408;51.032;9.410;2023-04-25T09:47:14;98571.13;;;7.94;61.79
71573;BME280;59408;51.032;9.410;2023-04-25T09:49:42;98577.38;;;7.53;57.23
71573;BME280;59408;51.032;9.410;2023-04-25T09:52:10;98577.94;;;7.38;58.40
71573;BME280;59408;51.032;9.410;2023-04-25T09:54:41;98588.84;;;7.21;57.14
71573;BME280;59408;51.032;9.410;2023-04-25T09:57:11;98586.44;;;7.37;57.42
71573;BME280;59408;51.032;9.410;2023-04-25T09:59:39;98599.44;;;7.14;57.59
71573;BME280;59408;51.032;9.410;2023-04-25T10:02:07;98585.69;;;7.19;58.09
71573;BME280;59408;51.032;9.410;2023-04-25T10:04:35;98595.31;;;7.08;57.57
71573;BME280;59408;51.032;9.410;2023-04-25T10:07:03;98598.06;;;6.99;60.48
71573;BME280;59408;51.032;9.410;2023-04-25T10:09:32;98598.53;;;7.01;58.73
71573;BME280;59408;51.032;9.410;2023-04-25T10:12:02;98597.78;;;7.21;59.10
71573;BME280;59408;51.032;9.410;2023-04-25T10:14:30;98601.13;;;7.56;60.10
71573;BME280;59408;51.032;9.410;2023-04-25T10:16:57;98608.66;;;7.51;61.26
71573;BME280;59408;51.032;9.410;2023-04-25T10:19:27;98606.47;;;7.44;60.81
71573;BME280;59408;51.032;9.410;2023-04-25T10:21:57;98613.91;;;7.77;61.84
71573;BME280;59408;51.032;9.410;2023-04-25T10:24:25;98615.34;;;7.83;60.53
71573;BME280;59408;51.032;9.410;2023-04-25T10:26:52;98616.44;;;8.02;59.86
71573;BME280;59408;51.032;9.410;2023-04-25T10:29:24;98613.53;;;8.28;58.40
71573;BME280;59408;51.032;9.410;2023-04-25T10:31:51;98611.94;;;8.07;58.13
71573;BME280;59408;51.032;9.410;2023-04-25T10:34:19;98610.94;;;8.11;58.58
71573;BME280;59408;51.032;9.410;2023-04-25T10:36:50;98618.84;;;8.70;59.02
71573;BME280;59408;51.032;9.410;2023-04-25T10:39:22;98618.75;;;8.79;57.08
71573;BME280;59408;51.032;9.410;2023-04-25T10:41:53;98613.69;;;9.13;56.12
71573;BME280;59408;51.032;9.410;2023-04-25T10:44:19;98609.31;;;9.45;53.34
71573;BME280;59408;51.032;9.410;2023-04-25T10:46:47;98630.50;;;9.64;53.86
71573;BME280;59408;51.032;9.410;2023-04-25T10:49:29;98630.38;;;9.73;50.92
71573;BME280;59408;51.032;9.410;2023-04-25T10:52:24;98627.69;;;9.24;49.45
71573;BME280;59408;51.032;9.410;2023-04-25T10:54:53;98631.00;;;8.85;49.71
71573;BME280;59408;51.032;9.410;2023-04-25T10:57:30;98624.94;;;8.67;50.79
71573;BME280;59408;51.032;9.410;2023-04-25T11:00:02;98635.16;;;8.70;50.91
71573;BME280;59408;51.032;9.410;2023-04-25T11:02:36;98629.16;;;8.64;50.46
71573;BME280;59408;51.032;9.410;2023-04-25T11:05:04;98632.06;;;8.26;51.98
71573;BME280;59408;51.032;9.410;2023-04-25T11:07:34;98636.03;;;8.29;52.95
71573;BME280;59408;51.032;9.410;2023-04-25T11:10:06;98635.38;;;8.32;51.52
71573;BME280;59408;51.032;9.410;2023-04-25T11:12:33;98646.41;;;8.93;53.74
71573;BME280;59408;51.032;9.410;2023-04-25T11:15:01;98647.59;;;9.16;50.71
71573;BME280;59408;51.032;9.410;2023-04-25T11:17:28;98644.97;;;9.07;52.83
71573;BME280;59408;51.032;9.410;2023-04-25T11:19:56;98630.28;;;8.75;51.43
71573;BME280;59408;51.032;9.410;2023-04-25T11:22:23;98645.66;;;8.92;50.48
71573;BME280;59408;51.032;9.410;2023-04-25T11:24:50;98645.00;;;8.74;51.92
71573;BME280;59408;51.032;9.410;2023-04-25T11:27:16;98632.94;;;8.51;51.70
71573;BME280;59408;51.032;9.410;2023-04-25T11:29:43;98648.63;;;8.33;52.52
71573;BME280;59408;51.032;9.410;2023-04-25T11:32:10;98648.75;;;8.37;52.95
71573;BME280;59408;51.032;9.410;2023-04-25T11:34:36;98649.09;;;8.68;52.93
71573;BME280;59408;51.032;9.410;2023-04-25T11:37:04;98645.09;;;8.54;51.65
71573;BME280;59408;51.032;9.410;2023-04-25T11:39:31;98641.75;;;8.48;51.13
71573;BME280;59408;51.032;9.410;2023-04-25T11:41:58;98648.28;;;8.68;52.24
71573;BME280;59408;51.032;9.410;2023-04-25T11:44:28;98660.91;;;8.85;50.72
71573;BME280;59408;51.032;9.410;2023-04-25T11:46:55;98652.41;;;8.74;50.14
71573;BME280;59408;51.032;9.410;2023-04-25T11:49:21;98652.66;;;8.93;53.22
71573;BME280;59408;51.032;9.410;2023-04-25T11:51:48;98650.59;;;9.35;50.43
71573;BME280;59408;51.032;9.410;2023-04-25T11:54:16;98647.19;;;9.50;48.81
71573;BME280;59408;51.032;9.410;2023-04-25T11:56:43;98650.91;;;9.22;52.42
71573;BME280;59408;51.032;9.410;2023-04-25T11:59:10;98655.81;;;9.28;53.28
71573;BME280;59408;51.032;9.410;2023-04-25T12:01:39;98660.00;;;9.62;51.39
71573;BME280;59408;51.032;9.410;2023-04-25T12:04:13;98653.31;;;9.60;50.22
71573;BME280;59408;51.032;9.410;2023-04-25T12:06:41;98659.84;;;9.95;53.03
71573;BME280;59408;51.032;9.410;2023-04-25T12:09:10;98667.41;;;10.02;52.42
71573;BME280;59408;51.032;9.410;2023-04-25T12:11:45;98663.78;;;10.10;51.27
71573;BME280;59408;51.032;9.410;2023-04-25T12:14:20;98668.94;;;9.75;50.70
71573;BME280;59408;51.032;9.410;2023-04-25T12:16:48;98682.59;;;9.63;48.91
71573;BME280;59408;51.032;9.410;2023-04-25T12:19:15;98678.97;;;9.46;52.66
71573;BME280;59408;51.032;9.410;2023-04-25T12:21:43;98673.69;;;9.29;53.00
71573;BME280;59408;51.032;9.410;2023-04-25T12:24:17;98678.09;;;9.09;52.27
71573;BME280;59408;51.032;9.410;2023-04-25T12:26:52;98680.34;;;9.07;52.24
71573;BME280;59408;51.032;9.410;2023-04-25T12:29:20;98681.97;;;9.21;53.88
71573;BME280;59408;51.032;9.410;2023-04-25T12:31:47;98703.91;;;9.03;52.32
71573;BME280;59408;51.032;9.410;2023-04-25T12:34:15;98691.06;;;9.25;53.56
71573;BME280;59408;51.032;9.410;2023-04-25T12:36:42;98701.59;;;9.38;53.11
71573;BME280;59408;51.032;9.410;2023-04-25T12:39:14;98711.63;;;9.46;51.79
71573;BME280;59408;51.032;9.410;2023-04-25T12:41:40;98688.63;;;10.48;54.46
71573;BME280;59408;51.032;9.410;2023-04-25T12:44:08;98705.97;;;10.68;50.36
71573;BME280;59408;51.032;9.410;2023-04-25T12:46:35;98706.53;;;10.34;50.42
71573;BME280;59408;51.032;9.410;2023-04-25T12:49:03;98709.31;;;10.49;49.52
71573;BME280;59408;51.032;9.410;2023-04-25T12:51:44;98710.41;;;10.20;51.47
71573;BME280;59408;51.032;9.410;2023-04-25T12:54:10;98701.63;;;9.87;51.37
71573;BME280;59408;51.032;9.410;2023-04-25T12:56:37;98708.44;;;9.81;52.42
71573;BME280;59408;51.032;9.410;2023-04-25T12:59:04;98707.59;;;10.17;50.25
71573;BME280;59408;51.032;9.410;2023-04-25T13:01:32;98694.03;;;9.80;48.98
71573;BME280;59408;51.032;9.410;2023-04-25T13:04:01;98685.59;;;10.78;50.65
71573;BME280;59408;51.032;9.410;2023-04-25T13:06:28;98687.63;;;10.81;47.92